sensor_id;sensor_type;location;lat;lon;timestamp;temperature;humidity
939;DHT22;456;53.584;9.968;2023-06-10T00:01:24;16.30;44.20
939;DHT22;456;53.584;9.968;2023-06-10T00:03:51;16.30;43.80
939;DHT22;456;53.584;9.968;2023-06-10T00:06:17;16.30;44.00
939;DHT22;456;53.584;9.968;2023-06-10T00:08:43;16.30;43.80
939;DHT22;456;53.584;9.968;2023-06-10T00:11:09;16.30;44.00
939;DHT22;456;53.584;9.968;2023-06-10T00:13:35;16.30;43.90
939;DHT22;456;53.584;9.968;2023-06-10T00:16:01;16.30;43.70
939;DHT22;456;53.584;9.968;2023-06-10T00:18:26;16.30;44.00
939;DHT22;456;53.584;9.968;2023-06-10T00:20:52;16.30;44.10
939;DHT22;456;53.584;9.968;2023-06-10T00:23:21;16.30;44.00
939;DHT22;456;53.584;9.968;2023-06-10T00:25:46;16.30;44.20
939;DHT22;456;53.584;9.968;2023-06-10T00:28:12;16.30;44.00
939;DHT22;456;53.584;9.968;2023-06-10T00:30:38;16.30;44.20
939;DHT22;456;53.584;9.968;2023-06-10T00:33:04;16.30;44.20
939;DHT22;456;53.584;9.968;2023-06-10T00:35:30;16.30;44.30
939;DHT22;456;53.584;9.968;2023-06-10T00:37:55;16.30;44.20
939;DHT22;456;53.584;9.968;2023-06-10T00:40:21;16.30;44.20
939;DHT22;456;53.584;9.968;2023-06-10T00:42:46;16.30;44.20
939;DHT22;456;53.584;9.968;2023-06-10T00:45:12;16.30;44.30
939;DHT22;456;53.584;9.968;2023-06-10T00:47:38;16.30;44.20
939;DHT22;456;53.584;9.968;2023-06-10T00:50:05;16.30;44.20
939;DHT22;456;53.584;9.968;2023-06-10T00:52:31;16.30;44.30
939;DHT22;456;53.584;9.968;2023-06-10T00:54:57;16.30;44.20
939;DHT22;456;53.584;9.968;2023-06-10T00:57:24;16.30;44.20
939;DHT22;456;53.584;9.968;2023-06-10T00:59:51;16.30;44.20
939;DHT22;456;53.584;9.968;2023-06-10T01:02:16;16.30;44.30
939;DHT22;456;53.584;9.968;2023-06-10T01:04:42;16.30;44.20
939;DHT22;456;53.584;9.968;2023-06-10T01:07:17;16.30;44.20
939;DHT22;456;53.584;9.968;2023-06-10T01:12:41;16.30;44.20
939;DHT22;456;53.584;9.968;2023-06-10T01:15:17;16.30;44.20
939;DHT22;456;53.584;9.968;2023-06-10T01:20:25;16.30;44.20
939;DHT22;456;53.584;9.968;2023-06-10T01:22:54;16.30;44.20
939;DHT22;456;53.584;9.968;2023-06-10T01:25:21;16.30;44.20
939;DHT22;456;53.584;9.968;2023-06-10T01:28:07;16.30;44.30
939;DHT22;456;53.584;9.968;2023-06-10T01:30:48;16.30;44.20
939;DHT22;456;53.584;9.968;2023-06-10T01:33:18;16.30;44.20
939;DHT22;456;53.584;9.968;2023-06-10T01:35:44;16.30;44.20
939;DHT22;456;53.584;9.968;2023-06-10T01:38:13;16.30;44.20
939;DHT22;456;53.584;9.968;2023-06-10T01:40:40;16.30;44.20
939;DHT22;456;53.584;9.968;2023-06-10T01:43:06;16.30;44.20
939;DHT22;456;53.584;9.968;2023-06-10T01:45:31;16.30;44.30
939;DHT22;456;53.584;9.968;2023-06-10T01:47:57;16.30;44.20
939;DHT22;456;53.584;9.968;2023-06-10T01:50:22;16.30;44.30
939;DHT22;456;53.584;9.968;2023-06-10T01:52:48;16.30;44.30
939;DHT22;456;53.584;9.968;2023-06-10T01:55:14;16.30;44.20
939;DHT22;456;53.584;9.968;2023-06-10T01:57:39;16.30;44.30
939;DHT22;456;53.584;9.968;2023-06-10T02:00:05;16.30;44.20
939;DHT22;456;53.584;9.968;2023-06-10T02:02:31;16.30;44.30
939;DHT22;456;53.584;9.968;2023-06-10T02:04:57;16.30;44.20
939;DHT22;456;53.584;9.968;2023-06-10T02:07:22;16.30;44.20
939;DHT22;456;53.584;9.968;2023-06-10T02:09:48;16.30;44.70
939;DHT22;456;53.584;9.968;2023-06-10T02:12:13;16.30;44.30
939;DHT22;456;53.584;9.968;2023-06-10T02:14:39;16.30;44.30
939;DHT22;456;53.584;9.968;2023-06-10T02:17:05;16.30;44.30
939;DHT22;456;53.584;9.968;2023-06-10T02:19:30;16.30;44.20
939;DHT22;456;53.584;9.968;2023-06-10T02:21:56;16.30;44.20
939;DHT22;456;53.584;9.968;2023-06-10T02:24:22;16.30;44.20
939;DHT22;456;53.584;9.968;2023-06-10T02:26:47;16.30;44.30
939;DHT22;456;53.584;9.968;2023-06-10T02:29:13;16.30;44.20
939;DHT22;456;53.584;9.968;2023-06-10T02:31:39;16.30;44.20
939;DHT22;456;53.584;9.968;2023-06-10T02:34:05;16.30;44.30
939;DHT22;456;53.584;9.968;2023-06-10T02:36:30;16.30;44.20
939;DHT22;456;53.584;9.968;2023-06-10T02:38:56;16.30;44.50
939;DHT22;456;53.584;9.968;2023-06-10T02:41:22;16.30;44.30
939;DHT22;456;53.584;9.968;2023-06-10T02:43:48;16.30;44.20
939;DHT22;456;53.584;9.968;2023-06-10T02:46:14;16.30;44.20
939;DHT22;456;53.584;9.968;2023-06-10T02:48:43;16.30;44.20
939;DHT22;456;53.584;9.968;2023-06-10T02:51:12;16.30;44.30
939;DHT22;456;53.584;9.968;2023-06-10T02:53:37;16.30;44.20
939;DHT22;456;53.584;9.968;2023-06-10T02:56:03;16.30;44.20
939;DHT22;456;53.584;9.968;2023-06-10T02:58:29;16.30;44.20
939;DHT22;456;53.584;9.968;2023-06-10T03:00:54;16.30;44.20
939;DHT22;456;53.584;9.968;2023-06-10T03:03:20;16.30;44.20
939;DHT22;456;53.584;9.968;2023-06-10T03:05:48;16.30;44.20
939;DHT22;456;53.584;9.968;2023-06-10T03:08:14;16.20;44.20
939;DHT22;456;53.584;9.968;2023-06-10T03:10:39;16.30;44.20
939;DHT22;456;53.584;9.968;2023-06-10T03:13:05;16.30;44.20
939;DHT22;456;53.584;9.968;2023-06-10T03:15:30;16.30;44.20
939;DHT22;456;53.584;9.968;2023-06-10T03:18:01;16.30;44.30
939;DHT22;456;53.584;9.968;2023-06-10T03:20:27;16.30;44.20
939;DHT22;456;53.584;9.968;2023-06-10T03:22:54;16.30;44.20
939;DHT22;456;53.584;9.968;2023-06-10T03:25:19;16.30;44.30
939;DHT22;456;53.584;9.968;2023-06-10T03:27:46;16.30;44.20
939;DHT22;456;53.584;9.968;2023-06-10T03:30:13;16.30;44.20
939;DHT22;456;53.584;9.968;2023-06-10T03:32:39;16.30;44.20
939;DHT22;456;53.584;9.968;2023-06-10T03:35:05;16.30;44.20
939;DHT22;456;53.584;9.968;2023-06-10T03:37:32;16.30;44.30
939;DHT22;456;53.584;9.968;2023-06-10T03:39:57;16.30;44.20
939;DHT22;456;53.584;9.968;2023-06-10T03:42:23;16.30;44.20
939;DHT22;456;53.584;9.968;2023-06-10T03:44:48;16.30;44.20
939;DHT22;456;53.584;9.968;2023-06-10T03:47:14;16.20;44.20
939;DHT22;456;53.584;9.968;2023-06-10T03:49:39;16.30;44.20
939;DHT22;456;53.584;9.968;2023-06-10T03:52:06;16.30;44.20
939;DHT22;456;53.584;9.968;2023-06-10T03:54:32;16.30;44.20
939;DHT22;456;53.584;9.968;2023-06-10T03:57:00;16.30;44.20
939;DHT22;456;53.584;9.968;2023-06-10T03:59:26;16.30;44.00
939;DHT22;456;53.584;9.968;2023-06-10T04:01:51;16.30;44.10
939;DHT22;456;53.584;9.968;2023-06-10T04:04:17;16.30;44.20
939;DHT22;456;53.584;9.968;2023-06-10T04:06:43;16.30;44.00
939;DHT22;456;53.584;9.968;2023-06-10T04:09:12;16.30;44.10
939;DHT22;456;53.584;9.968;2023-06-10T04:11:38;16.30;44.20
939;DHT22;456;53.584;9.968;2023-06-10T04:14:03;16.30;44.10
939;DHT22;456;53.584;9.968;2023-06-10T04:16:29;16.30;44.10
939;DHT22;456;53.584;9.968;2023-06-10T04:18:54;16.30;44.20
939;DHT22;456;53.584;9.968;2023-06-10T04:21:20;16.30;44.20
939;DHT22;456;53.584;9.968;2023-06-10T04:23:47;16.30;44.30
939;DHT22;456;53.584;9.968;2023-06-10T04:26:13;16.30;44.20
939;DHT22;456;53.584;9.968;2023-06-10T04:28:39;16.30;44.00
939;DHT22;456;53.584;9.968;2023-06-10T04:31:05;16.30;44.10
939;DHT22;456;53.584;9.968;2023-06-10T04:33:31;16.30;44.10
939;DHT22;456;53.584;9.968;2023-06-10T04:35:56;16.30;44.20
939;DHT22;456;53.584;9.968;2023-06-10T04:38:22;16.30;44.10
939;DHT22;456;53.584;9.968;2023-06-10T04:40:48;16.30;44.10
939;DHT22;456;53.584;9.968;2023-06-10T04:43:14;16.30;44.20
939;DHT22;456;53.584;9.968;2023-06-10T04:45:39;16.20;44.00
939;DHT22;456;53.584;9.968;2023-06-10T04:48:05;16.20;44.70
939;DHT22;456;53.584;9.968;2023-06-10T04:50:31;16.30;44.30
939;DHT22;456;53.584;9.968;2023-06-10T04:52:58;16.30;44.00
939;DHT22;456;53.584;9.968;2023-06-10T04:55:24;16.20;44.10
939;DHT22;456;53.584;9.968;2023-06-10T04:57:51;16.20;44.20
939;DHT22;456;53.584;9.968;2023-06-10T05:00:17;16.30;44.20
939;DHT22;456;53.584;9.968;2023-06-10T05:02:42;16.30;44.20
939;DHT22;456;53.584;9.968;2023-06-10T05:05:08;16.20;44.20
939;DHT22;456;53.584;9.968;2023-06-10T05:07:34;16.30;44.30
939;DHT22;456;53.584;9.968;2023-06-10T05:09:59;16.20;44.20
939;DHT22;456;53.584;9.968;2023-06-10T05:12:26;16.30;44.20
939;DHT22;456;53.584;9.968;2023-06-10T05:14:51;16.30;44.20
939;DHT22;456;53.584;9.968;2023-06-10T05:17:17;16.20;44.20
939;DHT22;456;53.584;9.968;2023-06-10T05:19:43;16.20;44.20
939;DHT22;456;53.584;9.968;2023-06-10T05:22:09;16.30;44.20
939;DHT22;456;53.584;9.968;2023-06-10T05:24:34;16.30;44.20
939;DHT22;456;53.584;9.968;2023-06-10T05:27:00;16.30;44.20
939;DHT22;456;53.584;9.968;2023-06-10T05:29:26;16.20;44.20
939;DHT22;456;53.584;9.968;2023-06-10T05:31:51;16.30;44.20
939;DHT22;456;53.584;9.968;2023-06-10T05:34:17;16.20;44.20
939;DHT22;456;53.584;9.968;2023-06-10T05:36:43;16.30;44.20
939;DHT22;456;53.584;9.968;2023-06-10T05:39:09;16.20;44.20
939;DHT22;456;53.584;9.968;2023-06-10T05:41:35;16.30;44.20
939;DHT22;456;53.584;9.968;2023-06-10T05:44:01;16.20;44.20
939;DHT22;456;53.584;9.968;2023-06-10T05:46:27;16.30;44.20
939;DHT22;456;53.584;9.968;2023-06-10T05:48:52;16.30;44.20
939;DHT22;456;53.584;9.968;2023-06-10T05:51:18;16.20;44.20
939;DHT22;456;53.584;9.968;2023-06-10T05:53:43;16.20;44.20
939;DHT22;456;53.584;9.968;2023-06-10T05:56:12;16.30;44.20
939;DHT22;456;53.584;9.968;2023-06-10T05:58:37;16.20;44.20
939;DHT22;456;53.584;9.968;2023-06-10T06:01:03;16.30;44.30
939;DHT22;456;53.584;9.968;2023-06-10T06:03:28;16.20;44.20
939;DHT22;456;53.584;9.968;2023-06-10T06:05:54;16.30;44.20
939;DHT22;456;53.584;9.968;2023-06-10T06:08:20;16.20;44.30
939;DHT22;456;53.584;9.968;2023-06-10T06:10:46;16.30;44.60
939;DHT22;456;53.584;9.968;2023-06-10T06:13:13;16.20;44.30
939;DHT22;456;53.584;9.968;2023-06-10T06:15:38;16.30;44.20
939;DHT22;456;53.584;9.968;2023-06-10T06:18:04;16.30;44.30
939;DHT22;456;53.584;9.968;2023-06-10T06:20:29;16.30;44.20
939;DHT22;456;53.584;9.968;2023-06-10T06:22:55;16.30;44.20
939;DHT22;456;53.584;9.968;2023-06-10T06:25:20;16.20;44.20
939;DHT22;456;53.584;9.968;2023-06-10T06:27:46;16.30;44.30
939;DHT22;456;53.584;9.968;2023-06-10T06:30:12;16.30;44.20
939;DHT22;456;53.584;9.968;2023-06-10T06:32:38;16.30;44.30
939;DHT22;456;53.584;9.968;2023-06-10T06:35:04;16.30;44.30
939;DHT22;456;53.584;9.968;2023-06-10T06:37:31;16.30;44.20
939;DHT22;456;53.584;9.968;2023-06-10T06:39:58;16.30;44.20
939;DHT22;456;53.584;9.968;2023-06-10T06:42:23;16.30;44.10
939;DHT22;456;53.584;9.968;2023-06-10T06:44:49;16.30;44.20
939;DHT22;456;53.584;9.968;2023-06-10T06:47:14;16.30;44.20
939;DHT22;456;53.584;9.968;2023-06-10T06:49:43;16.30;44.20
939;DHT22;456;53.584;9.968;2023-06-10T06:52:08;16.30;44.20
939;DHT22;456;53.584;9.968;2023-06-10T06:54:34;16.30;44.30
939;DHT22;456;53.584;9.968;2023-06-10T06:57:00;16.30;44.20
939;DHT22;456;53.584;9.968;2023-06-10T06:59:25;16.30;44.20
939;DHT22;456;53.584;9.968;2023-06-10T07:01:51;16.30;44.40
939;DHT22;456;53.584;9.968;2023-06-10T07:04:19;16.30;44.20
939;DHT22;456;53.584;9.968;2023-06-10T07:06:47;16.30;44.30
939;DHT22;456;53.584;9.968;2023-06-10T07:09:12;16.30;44.20
939;DHT22;456;53.584;9.968;2023-06-10T07:11:39;16.30;44.90
939;DHT22;456;53.584;9.968;2023-06-10T07:14:04;16.20;44.20
939;DHT22;456;53.584;9.968;2023-06-10T07:16:30;16.30;44.30
939;DHT22;456;53.584;9.968;2023-06-10T07:18:55;16.30;44.30
939;DHT22;456;53.584;9.968;2023-06-10T07:21:21;16.30;44.20
939;DHT22;456;53.584;9.968;2023-06-10T07:23:48;16.30;44.20
939;DHT22;456;53.584;9.968;2023-06-10T07:26:14;16.30;44.30
939;DHT22;456;53.584;9.968;2023-06-10T07:28:41;16.30;44.20
939;DHT22;456;53.584;9.968;2023-06-10T07:31:08;16.20;44.20
939;DHT22;456;53.584;9.968;2023-06-10T07:33:34;16.30;44.30
939;DHT22;456;53.584;9.968;2023-06-10T07:35:59;16.30;44.20
939;DHT22;456;53.584;9.968;2023-06-10T07:38:26;16.30;44.30
939;DHT22;456;53.584;9.968;2023-06-10T07:40:51;16.30;44.10
939;DHT22;456;53.584;9.968;2023-06-10T07:43:17;16.30;44.20
939;DHT22;456;53.584;9.968;2023-06-10T07:45:44;16.30;44.20
939;DHT22;456;53.584;9.968;2023-06-10T07:48:09;16.30;44.70
939;DHT22;456;53.584;9.968;2023-06-10T07:50:35;16.30;44.20
939;DHT22;456;53.584;9.968;2023-06-10T07:53:01;16.30;44.20
939;DHT22;456;53.584;9.968;2023-06-10T07:55:26;16.30;43.90
939;DHT22;456;53.584;9.968;2023-06-10T07:57:53;16.30;44.10
939;DHT22;456;53.584;9.968;2023-06-10T08:00:22;16.30;44.70
939;DHT22;456;53.584;9.968;2023-06-10T08:02:47;16.30;43.70
939;DHT22;456;53.584;9.968;2023-06-10T08:05:13;16.30;43.80
939;DHT22;456;53.584;9.968;2023-06-10T08:07:39;16.30;43.80
939;DHT22;456;53.584;9.968;2023-06-10T08:10:06;16.30;43.90
939;DHT22;456;53.584;9.968;2023-06-10T08:12:33;16.30;44.10
939;DHT22;456;53.584;9.968;2023-06-10T08:14:59;16.30;44.00
939;DHT22;456;53.584;9.968;2023-06-10T08:17:25;16.30;44.30
939;DHT22;456;53.584;9.968;2023-06-10T08:19:50;16.30;44.20
939;DHT22;456;53.584;9.968;2023-06-10T08:22:16;16.30;44.30
939;DHT22;456;53.584;9.968;2023-06-10T08:24:41;16.30;44.10
939;DHT22;456;53.584;9.968;2023-06-10T08:27:07;16.30;44.30
939;DHT22;456;53.584;9.968;2023-06-10T08:29:33;16.30;44.20
939;DHT22;456;53.584;9.968;2023-06-10T08:31:59;16.30;44.00
939;DHT22;456;53.584;9.968;2023-06-10T08:34:24;16.30;44.20
939;DHT22;456;53.584;9.968;2023-06-10T08:36:50;16.30;44.00
939;DHT22;456;53.584;9.968;2023-06-10T08:39:21;16.30;44.00
939;DHT22;456;53.584;9.968;2023-06-10T08:44:40;16.30;44.30
939;DHT22;456;53.584;9.968;2023-06-10T08:47:16;16.30;44.00
939;DHT22;456;53.584;9.968;2023-06-10T08:49:45;16.30;44.10
939;DHT22;456;53.584;9.968;2023-06-10T08:52:16;16.30;43.90
939;DHT22;456;53.584;9.968;2023-06-10T08:57:12;16.30;44.00
939;DHT22;456;53.584;9.968;2023-06-10T08:59:38;16.30;44.00
939;DHT22;456;53.584;9.968;2023-06-10T09:02:05;16.30;44.20
939;DHT22;456;53.584;9.968;2023-06-10T09:04:32;16.30;43.90
939;DHT22;456;53.584;9.968;2023-06-10T09:07:00;16.30;43.80
939;DHT22;456;53.584;9.968;2023-06-10T09:09:28;16.30;43.90
939;DHT22;456;53.584;9.968;2023-06-10T09:11:56;16.30;43.90
939;DHT22;456;53.584;9.968;2023-06-10T09:14:21;16.30;43.70
939;DHT22;456;53.584;9.968;2023-06-10T09:16:48;16.30;43.70
939;DHT22;456;53.584;9.968;2023-06-10T09:19:15;16.30;43.60
939;DHT22;456;53.584;9.968;2023-06-10T09:21:41;16.30;43.60
939;DHT22;456;53.584;9.968;2023-06-10T09:24:07;16.30;43.70
939;DHT22;456;53.584;9.968;2023-06-10T09:26:32;16.30;43.70
939;DHT22;456;53.584;9.968;2023-06-10T09:29:06;16.30;43.60
939;DHT22;456;53.584;9.968;2023-06-10T09:31:38;16.30;43.60
939;DHT22;456;53.584;9.968;2023-06-10T09:34:13;16.30;43.50
939;DHT22;456;53.584;9.968;2023-06-10T09:36:39;16.30;43.60
939;DHT22;456;53.584;9.968;2023-06-10T09:39:13;16.30;43.70
939;DHT22;456;53.584;9.968;2023-06-10T09:41:43;16.30;43.40
939;DHT22;456;53.584;9.968;2023-06-10T09:44:12;16.30;43.50
939;DHT22;456;53.584;9.968;2023-06-10T09:46:39;16.30;43.40
939;DHT22;456;53.584;9.968;2023-06-10T09:49:05;16.30;43.50
939;DHT22;456;53.584;9.968;2023-06-10T09:51:31;16.30;43.50
939;DHT22;456;53.584;9.968;2023-06-10T09:53:57;16.30;43.50
939;DHT22;456;53.584;9.968;2023-06-10T09:56:35;16.30;43.40
939;DHT22;456;53.584;9.968;2023-06-10T09:59:02;16.30;43.40
939;DHT22;456;53.584;9.968;2023-06-10T10:01:28;16.30;43.40
939;DHT22;456;53.584;9.968;2023-06-10T10:03:53;16.30;43.30
939;DHT22;456;53.584;9.968;2023-06-10T10:06:20;16.30;43.30
939;DHT22;456;53.584;9.968;2023-06-10T10:08:48;16.30;43.30
939;DHT22;456;53.584;9.968;2023-06-10T10:11:16;16.30;43.30
939;DHT22;456;53.584;9.968;2023-06-10T10:13:44;16.30;43.30
939;DHT22;456;53.584;9.968;2023-06-10T10:16:12;16.30;43.40
939;DHT22;456;53.584;9.968;2023-06-10T10:18:43;16.30;43.30
939;DHT22;456;53.584;9.968;2023-06-10T10:21:15;16.30;43.30
939;DHT22;456;53.584;9.968;2023-06-10T10:24:03;16.30;43.30
939;DHT22;456;53.584;9.968;2023-06-10T10:26:32;16.30;43.20
939;DHT22;456;53.584;9.968;2023-06-10T10:29:25;16.30;43.20
939;DHT22;456;53.584;9.968;2023-06-10T10:31:56;16.30;43.30
939;DHT22;456;53.584;9.968;2023-06-10T10:34:37;16.30;43.20
939;DHT22;456;53.584;9.968;2023-06-10T10:37:04;16.30;43.30
939;DHT22;456;53.584;9.968;2023-06-10T10:39:30;16.30;43.30
939;DHT22;456;53.584;9.968;2023-06-10T10:41:57;16.30;43.20
939;DHT22;456;53.584;9.968;2023-06-10T10:44:23;16.30;43.30
939;DHT22;456;53.584;9.968;2023-06-10T10:46:50;16.30;43.20
939;DHT22;456;53.584;9.968;2023-06-10T10:49:18;16.30;43.20
939;DHT22;456;53.584;9.968;2023-06-10T10:52:00;16.30;43.10
939;DHT22;456;53.584;9.968;2023-06-10T10:57:18;16.30;43.20
939;DHT22;456;53.584;9.968;2023-06-10T10:59:56;16.30;43.00
939;DHT22;456;53.584;9.968;2023-06-10T11:05:01;16.30;43.00
939;DHT22;456;53.584;9.968;2023-06-10T11:07:30;16.30;43.10
939;DHT22;456;53.584;9.968;2023-06-10T11:15:18;16.30;43.00
939;DHT22;456;53.584;9.968;2023-06-10T11:18:09;16.30;43.10
939;DHT22;456;53.584;9.968;2023-06-10T11:23:33;16.30;43.20
939;DHT22;456;53.584;9.968;2023-06-10T11:31:19;16.30;43.00
939;DHT22;456;53.584;9.968;2023-06-10T11:33:47;16.30;43.40
939;DHT22;456;53.584;9.968;2023-06-10T11:36:13;16.30;43.00
939;DHT22;456;53.584;9.968;2023-06-10T11:38:40;16.30;43.10
939;DHT22;456;53.584;9.968;2023-06-10T11:41:06;16.30;42.90
939;DHT22;456;53.584;9.968;2023-06-10T11:43:33;16.30;42.90
939;DHT22;456;53.584;9.968;2023-06-10T11:45:59;16.30;43.10
939;DHT22;456;53.584;9.968;2023-06-10T11:48:25;16.30;43.00
939;DHT22;456;53.584;9.968;2023-06-10T11:50:53;16.30;43.00
939;DHT22;456;53.584;9.968;2023-06-10T11:53:19;16.30;43.00
939;DHT22;456;53.584;9.968;2023-06-10T11:55:49;16.30;42.90
939;DHT22;456;53.584;9.968;2023-06-10T11:58:20;16.30;43.00
939;DHT22;456;53.584;9.968;2023-06-10T12:00:55;16.30;43.00
939;DHT22;456;53.584;9.968;2023-06-10T12:03:24;16.30;42.90
939;DHT22;456;53.584;9.968;2023-06-10T12:06:02;16.30;43.00
939;DHT22;456;53.584;9.968;2023-06-10T12:08:29;16.30;42.90
939;DHT22;456;53.584;9.968;2023-06-10T12:10:55;16.30;43.00
939;DHT22;456;53.584;9.968;2023-06-10T12:13:22;16.30;42.90
939;DHT22;456;53.584;9.968;2023-06-10T12:15:49;16.30;43.00
939;DHT22;456;53.584;9.968;2023-06-10T12:18:19;16.30;42.80
939;DHT22;456;53.584;9.968;2023-06-10T12:20:45;16.30;42.90
939;DHT22;456;53.584;9.968;2023-06-10T12:23:11;16.30;42.90
939;DHT22;456;53.584;9.968;2023-06-10T12:25:38;16.30;42.80
939;DHT22;456;53.584;9.968;2023-06-10T12:28:04;16.30;42.80
939;DHT22;456;53.584;9.968;2023-06-10T12:30:32;16.30;42.90
939;DHT22;456;53.584;9.968;2023-06-10T12:32:58;16.30;42.90
939;DHT22;456;53.584;9.968;2023-06-10T12:35:25;16.30;42.80
939;DHT22;456;53.584;9.968;2023-06-10T12:38:06;16.30;42.80
939;DHT22;456;53.584;9.968;2023-06-10T12:40:37;16.30;42.80
939;DHT22;456;53.584;9.968;2023-06-10T12:43:05;16.40;42.90
939;DHT22;456;53.584;9.968;2023-06-10T12:45:33;16.40;42.90
939;DHT22;456;53.584;9.968;2023-06-10T12:48:24;16.40;42.80
939;DHT22;456;53.584;9.968;2023-06-10T12:50:55;16.40;43.50
939;DHT22;456;53.584;9.968;2023-06-10T12:53:21;16.40;42.90
939;DHT22;456;53.584;9.968;2023-06-10T12:55:49;16.40;42.80
939;DHT22;456;53.584;9.968;2023-06-10T12:58:14;16.40;42.80
939;DHT22;456;53.584;9.968;2023-06-10T13:00:40;16.40;42.90
939;DHT22;456;53.584;9.968;2023-06-10T13:03:08;16.40;42.90
939;DHT22;456;53.584;9.968;2023-06-10T13:05:37;16.40;42.80
939;DHT22;456;53.584;9.968;2023-06-10T13:08:05;16.40;42.80
939;DHT22;456;53.584;9.968;2023-06-10T13:10:31;16.40;42.80
939;DHT22;456;53.584;9.968;2023-06-10T13:12:57;16.40;42.80
939;DHT22;456;53.584;9.968;2023-06-10T13:15:22;16.40;42.80
939;DHT22;456;53.584;9.968;2023-06-10T13:17:48;16.40;42.80
939;DHT22;456;53.584;9.968;2023-06-10T13:20:17;16.40;42.80
939;DHT22;456;53.584;9.968;2023-06-10T13:22:43;16.40;42.80
939;DHT22;456;53.584;9.968;2023-06-10T13:25:09;16.40;42.80
939;DHT22;456;53.584;9.968;2023-06-10T13:27:37;16.40;42.80
939;DHT22;456;53.584;9.968;2023-06-10T13:30:08;16.40;42.80
939;DHT22;456;53.584;9.968;2023-06-10T13:32:35;16.40;42.90
939;DHT22;456;53.584;9.968;2023-06-10T13:35:01;16.40;42.80
939;DHT22;456;53.584;9.968;2023-06-10T13:37:26;16.40;42.90
939;DHT22;456;53.584;9.968;2023-06-10T13:39:52;16.40;42.90
939;DHT22;456;53.584;9.968;2023-06-10T13:42:18;16.40;42.90
939;DHT22;456;53.584;9.968;2023-06-10T13:44:44;16.40;42.90
939;DHT22;456;53.584;9.968;2023-06-10T13:47:10;16.40;42.90
939;DHT22;456;53.584;9.968;2023-06-10T13:49:36;16.40;43.00
939;DHT22;456;53.584;9.968;2023-06-10T13:52:02;16.40;43.60
939;DHT22;456;53.584;9.968;2023-06-10T13:54:28;16.40;42.90
939;DHT22;456;53.584;9.968;2023-06-10T13:56:53;16.40;42.90
939;DHT22;456;53.584;9.968;2023-06-10T13:59:20;16.40;42.90
939;DHT22;456;53.584;9.968;2023-06-10T14:01:46;16.40;43.60
939;DHT22;456;53.584;9.968;2023-06-10T14:04:11;16.40;42.90
939;DHT22;456;53.584;9.968;2023-06-10T14:06:37;16.40;42.90
939;DHT22;456;53.584;9.968;2023-06-10T14:09:03;16.40;42.90
939;DHT22;456;53.584;9.968;2023-06-10T14:11:29;16.40;43.00
939;DHT22;456;53.584;9.968;2023-06-10T14:13:54;16.40;43.00
939;DHT22;456;53.584;9.968;2023-06-10T14:16:24;16.40;42.90
939;DHT22;456;53.584;9.968;2023-06-10T14:18:50;16.40;43.00
939;DHT22;456;53.584;9.968;2023-06-10T14:21:18;16.40;43.10
939;DHT22;456;53.584;9.968;2023-06-10T14:23:44;16.40;43.00
939;DHT22;456;53.584;9.968;2023-06-10T14:26:11;16.40;43.60
939;DHT22;456;53.584;9.968;2023-06-10T14:28:36;16.40;43.00
939;DHT22;456;53.584;9.968;2023-06-10T14:31:02;16.40;43.00
939;DHT22;456;53.584;9.968;2023-06-10T14:33:28;16.40;43.10
939;DHT22;456;53.584;9.968;2023-06-10T14:35:53;16.40;43.00
939;DHT22;456;53.584;9.968;2023-06-10T14:38:19;16.40;43.00
939;DHT22;456;53.584;9.968;2023-06-10T14:40:45;16.40;43.00
939;DHT22;456;53.584;9.968;2023-06-10T14:43:10;16.40;43.00
939;DHT22;456;53.584;9.968;2023-06-10T14:45:37;16.40;43.00
939;DHT22;456;53.584;9.968;2023-06-10T14:48:04;16.40;43.00
939;DHT22;456;53.584;9.968;2023-06-10T14:50:30;16.40;43.10
939;DHT22;456;53.584;9.968;2023-06-10T14:52:55;16.40;43.00
939;DHT22;456;53.584;9.968;2023-06-10T14:55:21;16.40;43.00
939;DHT22;456;53.584;9.968;2023-06-10T14:57:48;16.40;43.00
939;DHT22;456;53.584;9.968;2023-06-10T15:00:14;16.40;43.20
939;DHT22;456;53.584;9.968;2023-06-10T15:02:42;16.40;43.10
939;DHT22;456;53.584;9.968;2023-06-10T15:05:08;16.40;43.00
939;DHT22;456;53.584;9.968;2023-06-10T15:07:34;16.40;43.10
939;DHT22;456;53.584;9.968;2023-06-10T15:09:59;16.40;43.10
939;DHT22;456;53.584;9.968;2023-06-10T15:12:25;16.40;43.10
939;DHT22;456;53.584;9.968;2023-06-10T15:14:51;16.40;43.10
939;DHT22;456;53.584;9.968;2023-06-10T15:17:17;16.40;43.20
939;DHT22;456;53.584;9.968;2023-06-10T15:19:42;16.40;43.10
939;DHT22;456;53.584;9.968;2023-06-10T15:22:08;16.40;43.10
939;DHT22;456;53.584;9.968;2023-06-10T15:24:34;16.40;43.20
939;DHT22;456;53.584;9.968;2023-06-10T15:26:59;16.40;43.20
939;DHT22;456;53.584;9.968;2023-06-10T15:29:25;16.40;43.30
939;DHT22;456;53.584;9.968;2023-06-10T15:31:51;16.40;43.30
939;DHT22;456;53.584;9.968;2023-06-10T15:34:16;16.40;43.20
939;DHT22;456;53.584;9.968;2023-06-10T15:36:42;16.50;43.30
939;DHT22;456;53.584;9.968;2023-06-10T15:39:08;16.40;43.20
939;DHT22;456;53.584;9.968;2023-06-10T15:41:34;16.50;43.30
939;DHT22;456;53.584;9.968;2023-06-10T15:44:00;16.40;43.20
939;DHT22;456;53.584;9.968;2023-06-10T15:46:27;16.40;43.20
939;DHT22;456;53.584;9.968;2023-06-10T15:48:53;16.40;43.80
939;DHT22;456;53.584;9.968;2023-06-10T15:51:22;16.40;43.20
939;DHT22;456;53.584;9.968;2023-06-10T15:53:47;16.40;43.30
939;DHT22;456;53.584;9.968;2023-06-10T15:56:13;16.40;43.20
939;DHT22;456;53.584;9.968;2023-06-10T15:58:39;16.40;43.20
939;DHT22;456;53.584;9.968;2023-06-10T16:01:05;16.40;43.20
939;DHT22;456;53.584;9.968;2023-06-10T16:03:32;16.50;43.30
939;DHT22;456;53.584;9.968;2023-06-10T16:05:57;16.50;43.30
939;DHT22;456;53.584;9.968;2023-06-10T16:08:23;16.40;43.30
939;DHT22;456;53.584;9.968;2023-06-10T16:10:48;16.50;43.30
939;DHT22;456;53.584;9.968;2023-06-10T16:13:14;16.50;43.40
939;DHT22;456;53.584;9.968;2023-06-10T16:15:40;16.50;43.30
939;DHT22;456;53.584;9.968;2023-06-10T16:18:05;16.40;43.30
939;DHT22;456;53.584;9.968;2023-06-10T16:20:32;16.50;43.40
939;DHT22;456;53.584;9.968;2023-06-10T16:23:03;16.50;43.30
939;DHT22;456;53.584;9.968;2023-06-10T16:25:29;16.40;43.30
939;DHT22;456;53.584;9.968;2023-06-10T16:27:55;16.50;43.40
939;DHT22;456;53.584;9.968;2023-06-10T16:30:21;16.50;43.40
939;DHT22;456;53.584;9.968;2023-06-10T16:32:46;16.40;43.30
939;DHT22;456;53.584;9.968;2023-06-10T16:35:12;16.40;43.30
939;DHT22;456;53.584;9.968;2023-06-10T16:37:38;16.50;43.50
939;DHT22;456;53.584;9.968;2023-06-10T16:40:03;16.40;43.40
939;DHT22;456;53.584;9.968;2023-06-10T16:42:29;16.50;43.40
939;DHT22;456;53.584;9.968;2023-06-10T16:44:55;16.50;43.40
939;DHT22;456;53.584;9.968;2023-06-10T16:47:20;16.40;43.40
939;DHT22;456;53.584;9.968;2023-06-10T16:49:46;16.50;43.40
939;DHT22;456;53.584;9.968;2023-06-10T16:52:11;16.40;43.30
939;DHT22;456;53.584;9.968;2023-06-10T16:54:37;16.50;43.40
939;DHT22;456;53.584;9.968;2023-06-10T16:57:03;16.40;43.30
939;DHT22;456;53.584;9.968;2023-06-10T16:59:28;16.50;43.40
939;DHT22;456;53.584;9.968;2023-06-10T17:01:54;16.50;43.50